sensor_id;sensor_type;location;lat;lon;timestamp;P1;durP1;ratioP1;P2;durP2;ratioP2
11535;SDS011;5824;49.336;8.652;2022-08-21T00:02:14;8.27;;;5.30;;
11535;SDS011;5824;49.336;8.652;2022-08-21T00:04:41;10.00;;;4.80;;
11535;SDS011;5824;49.336;8.652;2022-08-21T00:07:06;8.47;;;5.10;;
11535;SDS011;5824;49.336;8.652;2022-08-21T00:09:32;9.90;;;5.70;;
11535;SDS011;5824;49.336;8.652;2022-08-21T00:11:58;7.07;;;5.00;;
11535;SDS011;5824;49.336;8.652;2022-08-21T00:14:23;9.07;;;5.20;;
11535;SDS011;5824;49.336;8.652;2022-08-21T00:16:49;6.87;;;4.90;;
11535;SDS011;5824;49.336;8.652;2022-08-21T00:19:14;8.23;;;5.00;;
11535;SDS011;5824;49.336;8.652;2022-08-21T00:21:40;7.77;;;5.17;;
11535;SDS011;5824;49.336;8.652;2022-08-21T00:24:06;8.53;;;5.50;;
11535;SDS011;5824;49.336;8.652;2022-08-21T00:26:31;7.87;;;5.00;;
11535;SDS011;5824;49.336;8.652;2022-08-21T00:28:57;7.73;;;4.80;;
11535;SDS011;5824;49.336;8.652;2022-08-21T00:31:22;8.47;;;5.30;;
11535;SDS011;5824;49.336;8.652;2022-08-21T00:33:48;9.53;;;4.60;;
11535;SDS011;5824;49.336;8.652;2022-08-21T00:36:14;10.93;;;5.10;;
11535;SDS011;5824;49.336;8.652;2022-08-21T00:38:39;7.70;;;5.23;;
11535;SDS011;5824;49.336;8.652;2022-08-21T00:41:06;8.97;;;5.33;;
11535;SDS011;5824;49.336;8.652;2022-08-21T00:43:34;7.30;;;5.20;;
11535;SDS011;5824;49.336;8.652;2022-08-21T00:46:01;6.73;;;4.60;;
11535;SDS011;5824;49.336;8.652;2022-08-21T00:48:28;8.97;;;5.20;;
11535;SDS011;5824;49.336;8.652;2022-08-21T00:50:58;8.00;;;5.07;;
11535;SDS011;5824;49.336;8.652;2022-08-21T00:53:29;5.97;;;4.77;;
11535;SDS011;5824;49.336;8.652;2022-08-21T00:55:56;10.03;;;5.10;;
11535;SDS011;5824;49.336;8.652;2022-08-21T00:58:22;6.80;;;5.00;;
11535;SDS011;5824;49.336;8.652;2022-08-21T01:00:50;16.93;;;5.20;;
11535;SDS011;5824;49.336;8.652;2022-08-21T01:03:17;8.07;;;5.47;;
11535;SDS011;5824;49.336;8.652;2022-08-21T01:05:45;7.60;;;6.07;;
11535;SDS011;5824;49.336;8.652;2022-08-21T01:08:11;6.30;;;5.30;;
11535;SDS011;5824;49.336;8.652;2022-08-21T01:10:38;9.67;;;5.80;;
11535;SDS011;5824;49.336;8.652;2022-08-21T01:13:05;7.80;;;5.40;;
11535;SDS011;5824;49.336;8.652;2022-08-21T01:15:33;8.93;;;5.20;;
11535;SDS011;5824;49.336;8.652;2022-08-21T01:18:02;6.53;;;5.27;;
11535;SDS011;5824;49.336;8.652;2022-08-21T01:20:30;6.43;;;5.40;;
11535;SDS011;5824;49.336;8.652;2022-08-21T01:22:56;6.70;;;5.20;;
11535;SDS011;5824;49.336;8.652;2022-08-21T01:25:21;6.53;;;4.47;;
11535;SDS011;5824;49.336;8.652;2022-08-21T01:27:47;12.60;;;5.50;;
11535;SDS011;5824;49.336;8.652;2022-08-21T01:32:42;5.77;;;4.40;;
11535;SDS011;5824;49.336;8.652;2022-08-21T01:35:08;6.77;;;5.23;;
11535;SDS011;5824;49.336;8.652;2022-08-21T01:37:34;7.67;;;4.97;;
11535;SDS011;5824;49.336;8.652;2022-08-21T01:40:00;8.13;;;4.97;;
11535;SDS011;5824;49.336;8.652;2022-08-21T01:42:26;8.03;;;4.60;;
11535;SDS011;5824;49.336;8.652;2022-08-21T01:44:52;10.53;;;5.33;;
11535;SDS011;5824;49.336;8.652;2022-08-21T01:47:17;8.70;;;5.40;;
11535;SDS011;5824;49.336;8.652;2022-08-21T01:49:43;7.23;;;5.23;;
11535;SDS011;5824;49.336;8.652;2022-08-21T01:52:10;7.43;;;4.70;;
11535;SDS011;5824;49.336;8.652;2022-08-21T01:54:36;7.47;;;5.07;;
11535;SDS011;5824;49.336;8.652;2022-08-21T01:57:02;8.00;;;5.13;;
11535;SDS011;5824;49.336;8.652;2022-08-21T01:59:29;9.07;;;5.70;;
11535;SDS011;5824;49.336;8.652;2022-08-21T02:01:54;6.67;;;4.80;;
11535;SDS011;5824;49.336;8.652;2022-08-21T02:04:20;7.50;;;5.30;;
11535;SDS011;5824;49.336;8.652;2022-08-21T02:06:45;10.10;;;5.47;;
11535;SDS011;5824;49.336;8.652;2022-08-21T02:09:12;8.10;;;4.63;;
11535;SDS011;5824;49.336;8.652;2022-08-21T02:11:38;6.73;;;5.13;;
11535;SDS011;5824;49.336;8.652;2022-08-21T02:14:05;6.20;;;4.47;;
11535;SDS011;5824;49.336;8.652;2022-08-21T02:16:32;4.90;;;4.20;;
11535;SDS011;5824;49.336;8.652;2022-08-21T02:18:58;7.87;;;4.97;;
11535;SDS011;5824;49.336;8.652;2022-08-21T02:21:23;8.33;;;5.00;;
11535;SDS011;5824;49.336;8.652;2022-08-21T02:23:49;5.10;;;4.60;;
11535;SDS011;5824;49.336;8.652;2022-08-21T02:26:14;8.07;;;4.37;;
11535;SDS011;5824;49.336;8.652;2022-08-21T02:28:40;6.83;;;4.57;;
11535;SDS011;5824;49.336;8.652;2022-08-21T02:31:06;6.27;;;4.60;;
11535;SDS011;5824;49.336;8.652;2022-08-21T02:33:32;6.20;;;4.70;;
11535;SDS011;5824;49.336;8.652;2022-08-21T02:35:58;10.90;;;4.63;;
11535;SDS011;5824;49.336;8.652;2022-08-21T02:38:25;6.87;;;4.97;;
11535;SDS011;5824;49.336;8.652;2022-08-21T02:40:54;6.67;;;5.07;;
11535;SDS011;5824;49.336;8.652;2022-08-21T02:43:21;5.97;;;4.90;;
11535;SDS011;5824;49.336;8.652;2022-08-21T02:45:47;7.80;;;5.10;;
11535;SDS011;5824;49.336;8.652;2022-08-21T02:48:15;5.87;;;4.87;;
11535;SDS011;5824;49.336;8.652;2022-08-21T02:51:03;7.07;;;4.63;;
11535;SDS011;5824;49.336;8.652;2022-08-21T02:53:32;8.07;;;4.73;;
11535;SDS011;5824;49.336;8.652;2022-08-21T02:55:59;7.13;;;4.63;;
11535;SDS011;5824;49.336;8.652;2022-08-21T02:58:30;7.30;;;4.70;;
11535;SDS011;5824;49.336;8.652;2022-08-21T03:01:06;5.50;;;4.77;;
11535;SDS011;5824;49.336;8.652;2022-08-21T03:03:34;7.57;;;5.00;;
11535;SDS011;5824;49.336;8.652;2022-08-21T03:06:01;6.33;;;4.63;;
11535;SDS011;5824;49.336;8.652;2022-08-21T03:08:28;7.90;;;4.67;;
11535;SDS011;5824;49.336;8.652;2022-08-21T03:10:54;5.27;;;4.10;;
11535;SDS011;5824;49.336;8.652;2022-08-21T03:13:20;5.77;;;4.50;;
11535;SDS011;5824;49.336;8.652;2022-08-21T03:15:47;7.47;;;4.50;;
11535;SDS011;5824;49.336;8.652;2022-08-21T03:18:13;9.90;;;4.73;;
11535;SDS011;5824;49.336;8.652;2022-08-21T03:20:40;8.80;;;4.97;;
11535;SDS011;5824;49.336;8.652;2022-08-21T03:23:07;6.47;;;4.67;;
11535;SDS011;5824;49.336;8.652;2022-08-21T03:25:34;10.20;;;4.97;;
11535;SDS011;5824;49.336;8.652;2022-08-21T03:28:01;14.27;;;4.87;;
11535;SDS011;5824;49.336;8.652;2022-08-21T03:30:29;6.60;;;4.67;;
11535;SDS011;5824;49.336;8.652;2022-08-21T03:32:56;6.50;;;4.70;;
11535;SDS011;5824;49.336;8.652;2022-08-21T03:35:23;6.40;;;4.30;;
11535;SDS011;5824;49.336;8.652;2022-08-21T03:37:49;9.27;;;4.67;;
11535;SDS011;5824;49.336;8.652;2022-08-21T03:40:15;9.27;;;4.77;;
11535;SDS011;5824;49.336;8.652;2022-08-21T03:42:43;6.30;;;4.80;;
11535;SDS011;5824;49.336;8.652;2022-08-21T03:45:12;7.53;;;4.07;;
11535;SDS011;5824;49.336;8.652;2022-08-21T03:47:38;7.13;;;4.60;;
11535;SDS011;5824;49.336;8.652;2022-08-21T03:50:15;5.40;;;4.37;;
11535;SDS011;5824;49.336;8.652;2022-08-21T03:52:42;6.20;;;4.50;;
11535;SDS011;5824;49.336;8.652;2022-08-21T03:55:07;8.10;;;4.77;;
11535;SDS011;5824;49.336;8.652;2022-08-21T03:57:33;5.33;;;4.23;;
11535;SDS011;5824;49.336;8.652;2022-08-21T03:59:58;6.07;;;4.27;;
11535;SDS011;5824;49.336;8.652;2022-08-21T04:02:23;6.43;;;4.60;;
11535;SDS011;5824;49.336;8.652;2022-08-21T04:04:50;7.60;;;4.63;;
11535;SDS011;5824;49.336;8.652;2022-08-21T04:07:15;7.60;;;4.77;;
11535;SDS011;5824;49.336;8.652;2022-08-21T04:09:41;5.87;;;4.40;;
11535;SDS011;5824;49.336;8.652;2022-08-21T04:12:07;7.60;;;4.43;;
11535;SDS011;5824;49.336;8.652;2022-08-21T04:14:33;7.07;;;4.47;;
11535;SDS011;5824;49.336;8.652;2022-08-21T04:16:58;8.80;;;5.00;;
11535;SDS011;5824;49.336;8.652;2022-08-21T04:19:24;8.53;;;4.63;;
11535;SDS011;5824;49.336;8.652;2022-08-21T04:21:50;7.20;;;4.53;;
11535;SDS011;5824;49.336;8.652;2022-08-21T04:24:15;7.57;;;4.70;;
11535;SDS011;5824;49.336;8.652;2022-08-21T04:26:41;8.33;;;4.73;;
11535;SDS011;5824;49.336;8.652;2022-08-21T04:29:06;8.70;;;5.00;;
11535;SDS011;5824;49.336;8.652;2022-08-21T04:31:33;7.87;;;5.20;;
11535;SDS011;5824;49.336;8.652;2022-08-21T04:33:59;6.33;;;4.07;;
11535;SDS011;5824;49.336;8.652;2022-08-21T04:36:25;12.93;;;4.50;;
11535;SDS011;5824;49.336;8.652;2022-08-21T04:38:50;6.47;;;4.57;;
11535;SDS011;5824;49.336;8.652;2022-08-21T04:41:16;5.97;;;4.60;;
11535;SDS011;5824;49.336;8.652;2022-08-21T04:43:41;5.97;;;4.30;;
11535;SDS011;5824;49.336;8.652;2022-08-21T04:46:07;5.30;;;4.43;;
11535;SDS011;5824;49.336;8.652;2022-08-21T04:48:33;7.60;;;4.53;;
11535;SDS011;5824;49.336;8.652;2022-08-21T04:53:30;6.10;;;4.57;;
11535;SDS011;5824;49.336;8.652;2022-08-21T04:56:01;4.73;;;4.10;;
11535;SDS011;5824;49.336;8.652;2022-08-21T04:58:29;8.27;;;3.90;;
11535;SDS011;5824;49.336;8.652;2022-08-21T05:00:57;12.23;;;4.30;;
11535;SDS011;5824;49.336;8.652;2022-08-21T05:03:24;7.47;;;4.87;;
11535;SDS011;5824;49.336;8.652;2022-08-21T05:05:49;6.20;;;4.60;;
11535;SDS011;5824;49.336;8.652;2022-08-21T05:08:15;8.27;;;4.80;;
11535;SDS011;5824;49.336;8.652;2022-08-21T05:10:44;6.13;;;4.70;;
11535;SDS011;5824;49.336;8.652;2022-08-21T05:13:10;6.70;;;4.50;;
11535;SDS011;5824;49.336;8.652;2022-08-21T05:15:37;9.53;;;4.57;;
11535;SDS011;5824;49.336;8.652;2022-08-21T05:18:04;6.83;;;4.40;;
11535;SDS011;5824;49.336;8.652;2022-08-21T05:20:30;6.60;;;4.30;;
11535;SDS011;5824;49.336;8.652;2022-08-21T05:22:55;6.60;;;4.43;;
11535;SDS011;5824;49.336;8.652;2022-08-21T05:25:21;9.43;;;4.77;;
11535;SDS011;5824;49.336;8.652;2022-08-21T05:27:47;5.20;;;4.47;;
11535;SDS011;5824;49.336;8.652;2022-08-21T05:30:13;5.00;;;4.30;;
11535;SDS011;5824;49.336;8.652;2022-08-21T05:32:38;7.90;;;4.90;;
11535;SDS011;5824;49.336;8.652;2022-08-21T05:35:04;8.33;;;4.53;;
11535;SDS011;5824;49.336;8.652;2022-08-21T05:37:31;7.07;;;4.30;;
11535;SDS011;5824;49.336;8.652;2022-08-21T05:39:56;10.83;;;4.87;;
11535;SDS011;5824;49.336;8.652;2022-08-21T05:42:22;6.20;;;4.50;;
11535;SDS011;5824;49.336;8.652;2022-08-21T05:44:48;6.93;;;4.57;;
11535;SDS011;5824;49.336;8.652;2022-08-21T05:47:13;6.17;;;4.40;;
11535;SDS011;5824;49.336;8.652;2022-08-21T05:49:39;9.07;;;4.37;;
11535;SDS011;5824;49.336;8.652;2022-08-21T05:52:05;8.10;;;4.93;;
11535;SDS011;5824;49.336;8.652;2022-08-21T05:54:31;8.33;;;4.30;;
11535;SDS011;5824;49.336;8.652;2022-08-21T05:56:56;7.00;;;4.73;;
11535;SDS011;5824;49.336;8.652;2022-08-21T05:59:22;7.70;;;4.57;;
11535;SDS011;5824;49.336;8.652;2022-08-21T06:01:48;8.60;;;5.03;;
11535;SDS011;5824;49.336;8.652;2022-08-21T06:04:14;8.90;;;5.20;;
11535;SDS011;5824;49.336;8.652;2022-08-21T06:06:39;14.70;;;4.70;;
11535;SDS011;5824;49.336;8.652;2022-08-21T06:09:05;8.53;;;5.23;;
11535;SDS011;5824;49.336;8.652;2022-08-21T06:11:31;6.80;;;5.17;;
11535;SDS011;5824;49.336;8.652;2022-08-21T06:13:58;7.73;;;5.20;;
11535;SDS011;5824;49.336;8.652;2022-08-21T06:16:25;8.80;;;5.20;;
11535;SDS011;5824;49.336;8.652;2022-08-21T06:18:51;6.37;;;5.13;;
11535;SDS011;5824;49.336;8.652;2022-08-21T06:21:17;9.87;;;5.30;;
11535;SDS011;5824;49.336;8.652;2022-08-21T06:23:43;16.83;;;5.90;;
11535;SDS011;5824;49.336;8.652;2022-08-21T06:26:09;7.67;;;5.40;;
11535;SDS011;5824;49.336;8.652;2022-08-21T06:28:37;8.73;;;5.93;;
11535;SDS011;5824;49.336;8.652;2022-08-21T06:31:14;10.73;;;5.90;;
11535;SDS011;5824;49.336;8.652;2022-08-21T06:33:46;11.83;;;5.73;;
11535;SDS011;5824;49.336;8.652;2022-08-21T06:36:12;11.13;;;5.20;;
11535;SDS011;5824;49.336;8.652;2022-08-21T06:38:39;9.93;;;5.30;;
11535;SDS011;5824;49.336;8.652;2022-08-21T06:41:05;10.03;;;5.57;;
11535;SDS011;5824;49.336;8.652;2022-08-21T06:43:31;11.80;;;5.77;;
11535;SDS011;5824;49.336;8.652;2022-08-21T06:45:56;9.10;;;5.10;;
11535;SDS011;5824;49.336;8.652;2022-08-21T06:48:22;8.77;;;5.20;;
11535;SDS011;5824;49.336;8.652;2022-08-21T06:50:48;10.90;;;5.50;;
11535;SDS011;5824;49.336;8.652;2022-08-21T06:53:14;7.83;;;4.97;;
11535;SDS011;5824;49.336;8.652;2022-08-21T06:55:42;6.93;;;4.90;;
11535;SDS011;5824;49.336;8.652;2022-08-21T06:58:08;9.60;;;4.90;;
11535;SDS011;5824;49.336;8.652;2022-08-21T07:00:35;13.80;;;5.70;;
11535;SDS011;5824;49.336;8.652;2022-08-21T07:03:04;9.63;;;4.90;;
11535;SDS011;5824;49.336;8.652;2022-08-21T07:05:29;9.00;;;5.07;;
11535;SDS011;5824;49.336;8.652;2022-08-21T07:07:55;9.27;;;5.30;;
11535;SDS011;5824;49.336;8.652;2022-08-21T07:10:22;10.50;;;5.13;;
11535;SDS011;5824;49.336;8.652;2022-08-21T07:12:49;8.73;;;5.30;;
11535;SDS011;5824;49.336;8.652;2022-08-21T07:15:16;9.77;;;5.47;;
11535;SDS011;5824;49.336;8.652;2022-08-21T07:17:41;7.10;;;5.30;;
11535;SDS011;5824;49.336;8.652;2022-08-21T07:20:07;8.40;;;5.30;;
11535;SDS011;5824;49.336;8.652;2022-08-21T07:22:33;10.00;;;6.07;;
11535;SDS011;5824;49.336;8.652;2022-08-21T07:25:01;16.90;;;6.50;;
11535;SDS011;5824;49.336;8.652;2022-08-21T07:27:27;9.93;;;5.80;;
11535;SDS011;5824;49.336;8.652;2022-08-21T07:29:53;8.33;;;5.20;;
11535;SDS011;5824;49.336;8.652;2022-08-21T07:32:18;14.90;;;5.80;;
11535;SDS011;5824;49.336;8.652;2022-08-21T07:34:44;13.03;;;5.67;;
11535;SDS011;5824;49.336;8.652;2022-08-21T07:37:10;9.70;;;5.57;;
11535;SDS011;5824;49.336;8.652;2022-08-21T07:39:35;10.60;;;4.90;;
11535;SDS011;5824;49.336;8.652;2022-08-21T07:42:01;13.27;;;6.20;;
11535;SDS011;5824;49.336;8.652;2022-08-21T07:44:28;11.73;;;5.50;;
11535;SDS011;5824;49.336;8.652;2022-08-21T07:46:53;10.43;;;5.60;;
11535;SDS011;5824;49.336;8.652;2022-08-21T07:49:19;12.60;;;5.20;;
11535;SDS011;5824;49.336;8.652;2022-08-21T07:51:44;9.90;;;5.73;;
11535;SDS011;5824;49.336;8.652;2022-08-21T07:54:10;8.70;;;5.57;;
11535;SDS011;5824;49.336;8.652;2022-08-21T07:56:36;11.13;;;5.30;;
11535;SDS011;5824;49.336;8.652;2022-08-21T07:59:01;9.30;;;5.50;;
11535;SDS011;5824;49.336;8.652;2022-08-21T08:01:27;10.27;;;4.75;;
11535;SDS011;5824;49.336;8.652;2022-08-21T08:03:53;9.85;;;4.88;;
11535;SDS011;5824;49.336;8.652;2022-08-21T08:06:19;9.27;;;4.93;;
11535;SDS011;5824;49.336;8.652;2022-08-21T08:08:45;8.95;;;5.03;;
11535;SDS011;5824;49.336;8.652;2022-08-21T08:11:12;8.13;;;5.13;;
11535;SDS011;5824;49.336;8.652;2022-08-21T08:13:44;8.07;;;5.00;;
11535;SDS011;5824;49.336;8.652;2022-08-21T08:16:12;9.68;;;4.68;;
11535;SDS011;5824;49.336;8.652;2022-08-21T08:18:37;10.05;;;5.22;;
11535;SDS011;5824;49.336;8.652;2022-08-21T08:21:04;12.60;;;5.05;;
11535;SDS011;5824;49.336;8.652;2022-08-21T08:23:30;10.07;;;5.55;;
11535;SDS011;5824;49.336;8.652;2022-08-21T08:25:56;9.48;;;5.35;;
11535;SDS011;5824;49.336;8.652;2022-08-21T08:28:23;8.50;;;5.22;;
11535;SDS011;5824;49.336;8.652;2022-08-21T08:30:48;6.07;;;4.40;;
11535;SDS011;5824;49.336;8.652;2022-08-21T08:33:15;9.30;;;4.57;;
11535;SDS011;5824;49.336;8.652;2022-08-21T08:35:42;8.50;;;4.50;;
11535;SDS011;5824;49.336;8.652;2022-08-21T08:38:12;9.50;;;4.57;;
11535;SDS011;5824;49.336;8.652;2022-08-21T08:40:44;10.98;;;4.80;;
11535;SDS011;5824;49.336;8.652;2022-08-21T08:43:16;6.72;;;4.75;;
11535;SDS011;5824;49.336;8.652;2022-08-21T08:45:45;8.48;;;5.13;;
11535;SDS011;5824;49.336;8.652;2022-08-21T08:48:21;9.30;;;5.22;;
11535;SDS011;5824;49.336;8.652;2022-08-21T08:51:24;9.55;;;4.70;;
11535;SDS011;5824;49.336;8.652;2022-08-21T08:54:07;7.10;;;4.70;;
11535;SDS011;5824;49.336;8.652;2022-08-21T08:56:37;9.73;;;4.90;;
11535;SDS011;5824;49.336;8.652;2022-08-21T08:59:23;10.18;;;4.90;;
11535;SDS011;5824;49.336;8.652;2022-08-21T09:01:53;7.57;;;4.85;;
11535;SDS011;5824;49.336;8.652;2022-08-21T09:04:25;12.02;;;5.22;;
11535;SDS011;5824;49.336;8.652;2022-08-21T09:13:08;8.70;;;5.13;;
11535;SDS011;5824;49.336;8.652;2022-08-21T09:18:38;8.15;;;4.40;;
11535;SDS011;5824;49.336;8.652;2022-08-21T09:21:22;8.75;;;5.13;;
11535;SDS011;5824;49.336;8.652;2022-08-21T09:23:55;7.57;;;4.43;;
11535;SDS011;5824;49.336;8.652;2022-08-21T09:26:50;6.63;;;4.72;;
11535;SDS011;5824;49.336;8.652;2022-08-21T09:29:27;8.65;;;4.57;;
11535;SDS011;5824;49.336;8.652;2022-08-21T09:31:56;6.55;;;4.63;;
11535;SDS011;5824;49.336;8.652;2022-08-21T09:34:26;7.90;;;4.40;;
11535;SDS011;5824;49.336;8.652;2022-08-21T09:36:54;10.70;;;4.90;;
11535;SDS011;5824;49.336;8.652;2022-08-21T09:41:57;9.43;;;4.47;;
11535;SDS011;5824;49.336;8.652;2022-08-21T09:44:27;8.82;;;4.18;;
11535;SDS011;5824;49.336;8.652;2022-08-21T09:46:55;9.07;;;3.70;;
11535;SDS011;5824;49.336;8.652;2022-08-21T09:49:31;8.27;;;3.80;;
11535;SDS011;5824;49.336;8.652;2022-08-21T09:51:59;10.15;;;3.83;;
11535;SDS011;5824;49.336;8.652;2022-08-21T09:54:29;7.43;;;3.72;;
11535;SDS011;5824;49.336;8.652;2022-08-21T09:57:04;4.70;;;3.13;;
11535;SDS011;5824;49.336;8.652;2022-08-21T10:00:07;8.15;;;3.75;;
11535;SDS011;5824;49.336;8.652;2022-08-21T10:02:35;7.18;;;3.53;;
11535;SDS011;5824;49.336;8.652;2022-08-21T10:07:31;9.30;;;3.80;;
11535;SDS011;5824;49.336;8.652;2022-08-21T10:09:59;8.65;;;4.18;;
11535;SDS011;5824;49.336;8.652;2022-08-21T10:12:44;6.63;;;3.65;;
11535;SDS011;5824;49.336;8.652;2022-08-21T10:15:24;6.60;;;3.60;;
11535;SDS011;5824;49.336;8.652;2022-08-21T10:18:13;8.25;;;4.20;;
11535;SDS011;5824;49.336;8.652;2022-08-21T10:20:54;9.30;;;4.30;;
11535;SDS011;5824;49.336;8.652;2022-08-21T10:23:54;6.78;;;4.00;;
11535;SDS011;5824;49.336;8.652;2022-08-21T10:32:15;7.40;;;3.88;;
11535;SDS011;5824;49.336;8.652;2022-08-21T10:35:07;6.30;;;3.60;;
11535;SDS011;5824;49.336;8.652;2022-08-21T10:40:34;8.45;;;3.90;;
11535;SDS011;5824;49.336;8.652;2022-08-21T10:43:16;10.35;;;4.00;;
11535;SDS011;5824;49.336;8.652;2022-08-21T10:48:43;7.47;;;3.70;;
11535;SDS011;5824;49.336;8.652;2022-08-21T10:51:16;8.57;;;3.65;;
11535;SDS011;5824;49.336;8.652;2022-08-21T10:56:24;8.05;;;3.85;;
11535;SDS011;5824;49.336;8.652;2022-08-21T11:01:47;11.23;;;3.90;;
11535;SDS011;5824;49.336;8.652;2022-08-21T11:07:26;10.25;;;3.70;;
11535;SDS011;5824;49.336;8.652;2022-08-21T11:09:54;6.88;;;3.75;;
11535;SDS011;5824;49.336;8.652;2022-08-21T11:15:10;7.88;;;4.32;;
11535;SDS011;5824;49.336;8.652;2022-08-21T11:17:49;6.18;;;3.63;;
11535;SDS011;5824;49.336;8.652;2022-08-21T11:20:40;6.53;;;3.10;;
11535;SDS011;5824;49.336;8.652;2022-08-21T11:23:43;7.97;;;3.35;;
11535;SDS011;5824;49.336;8.652;2022-08-21T11:26:17;9.75;;;3.45;;
11535;SDS011;5824;49.336;8.652;2022-08-21T11:28:55;7.38;;;3.45;;
11535;SDS011;5824;49.336;8.652;2022-08-21T11:31:40;7.35;;;3.13;;
11535;SDS011;5824;49.336;8.652;2022-08-21T11:39:25;9.45;;;3.40;;
11535;SDS011;5824;49.336;8.652;2022-08-21T11:47:13;6.00;;;3.50;;
11535;SDS011;5824;49.336;8.652;2022-08-21T11:52:39;6.60;;;3.28;;
11535;SDS011;5824;49.336;8.652;2022-08-21T11:55:15;5.47;;;2.70;;
11535;SDS011;5824;49.336;8.652;2022-08-21T12:00:55;6.65;;;3.10;;
11535;SDS011;5824;49.336;8.652;2022-08-21T12:03:22;5.00;;;2.70;;
11535;SDS011;5824;49.336;8.652;2022-08-21T12:05:56;7.93;;;3.17;;
11535;SDS011;5824;49.336;8.652;2022-08-21T12:14:00;4.25;;;2.97;;
11535;SDS011;5824;49.336;8.652;2022-08-21T12:19:05;5.93;;;2.88;;
11535;SDS011;5824;49.336;8.652;2022-08-21T12:21:31;5.05;;;2.70;;
11535;SDS011;5824;49.336;8.652;2022-08-21T12:26:47;6.28;;;2.83;;
11535;SDS011;5824;49.336;8.652;2022-08-21T12:29:33;4.90;;;2.90;;
11535;SDS011;5824;49.336;8.652;2022-08-21T12:32:03;5.03;;;3.10;;
11535;SDS011;5824;49.336;8.652;2022-08-21T12:34:48;5.75;;;3.00;;
11535;SDS011;5824;49.336;8.652;2022-08-21T12:37:24;4.93;;;3.00;;
11535;SDS011;5824;49.336;8.652;2022-08-21T12:39:54;4.40;;;2.92;;
11535;SDS011;5824;49.336;8.652;2022-08-21T12:42:26;4.40;;;3.10;;
11535;SDS011;5824;49.336;8.652;2022-08-21T12:45:06;6.70;;;2.67;;
11535;SDS011;5824;49.336;8.652;2022-08-21T12:47:51;4.70;;;2.80;;
11535;SDS011;5824;49.336;8.652;2022-08-21T12:50:51;7.93;;;3.05;;
11535;SDS011;5824;49.336;8.652;2022-08-21T12:55:54;4.45;;;2.72;;
11535;SDS011;5824;49.336;8.652;2022-08-21T12:58:28;4.18;;;2.80;;
11535;SDS011;5824;49.336;8.652;2022-08-21T13:01:00;6.53;;;3.17;;
11535;SDS011;5824;49.336;8.652;2022-08-21T13:03:33;5.03;;;2.83;;
11535;SDS011;5824;49.336;8.652;2022-08-21T13:06:02;5.13;;;3.20;;
11535;SDS011;5824;49.336;8.652;2022-08-21T13:08:29;6.93;;;3.08;;
11535;SDS011;5824;49.336;8.652;2022-08-21T13:11:00;5.30;;;2.75;;
11535;SDS011;5824;49.336;8.652;2022-08-21T13:13:29;4.43;;;2.92;;
11535;SDS011;5824;49.336;8.652;2022-08-21T13:16:04;4.47;;;2.92;;
11535;SDS011;5824;49.336;8.652;2022-08-21T13:18:33;5.35;;;2.90;;
11535;SDS011;5824;49.336;8.652;2022-08-21T13:21:09;4.65;;;2.70;;
11535;SDS011;5824;49.336;8.652;2022-08-21T13:23:37;5.72;;;2.92;;
11535;SDS011;5824;49.336;8.652;2022-08-21T13:26:19;3.90;;;2.58;;
11535;SDS011;5824;49.336;8.652;2022-08-21T13:28:46;4.75;;;2.72;;
11535;SDS011;5824;49.336;8.652;2022-08-21T13:31:18;8.35;;;3.05;;
11535;SDS011;5824;49.336;8.652;2022-08-21T13:33:49;4.78;;;2.83;;
11535;SDS011;5824;49.336;8.652;2022-08-21T13:36:24;3.78;;;2.80;;
11535;SDS011;5824;49.336;8.652;2022-08-21T13:38:54;8.27;;;2.80;;
11535;SDS011;5824;49.336;8.652;2022-08-21T13:41:21;4.78;;;2.90;;
11535;SDS011;5824;49.336;8.652;2022-08-21T13:43:59;5.25;;;2.88;;
11535;SDS011;5824;49.336;8.652;2022-08-21T13:46:42;4.07;;;2.55;;
11535;SDS011;5824;49.336;8.652;2022-08-21T13:49:08;6.97;;;3.25;;
11535;SDS011;5824;49.336;8.652;2022-08-21T13:51:35;4.88;;;3.25;;
11535;SDS011;5824;49.336;8.652;2022-08-21T13:54:02;5.68;;;2.70;;
11535;SDS011;5824;49.336;8.652;2022-08-21T13:56:58;7.25;;;2.88;;
11535;SDS011;5824;49.336;8.652;2022-08-21T13:59:25;6.43;;;3.05;;
11535;SDS011;5824;49.336;8.652;2022-08-21T14:01:54;4.63;;;2.47;;
11535;SDS011;5824;49.336;8.652;2022-08-21T14:04:36;5.53;;;2.80;;
11535;SDS011;5824;49.336;8.652;2022-08-21T14:07:17;5.57;;;2.83;;
11535;SDS011;5824;49.336;8.652;2022-08-21T14:09:52;3.80;;;2.70;;
11535;SDS011;5824;49.336;8.652;2022-08-21T14:12:24;5.65;;;2.83;;
11535;SDS011;5824;49.336;8.652;2022-08-21T14:14:53;3.60;;;2.65;;
11535;SDS011;5824;49.336;8.652;2022-08-21T14:17:28;6.45;;;2.80;;
11535;SDS011;5824;49.336;8.652;2022-08-21T14:19:56;5.75;;;3.17;;
11535;SDS011;5824;49.336;8.652;2022-08-21T14:22:37;6.63;;;3.17;;
11535;SDS011;5824;49.336;8.652;2022-08-21T14:25:08;6.60;;;2.88;;
11535;SDS011;5824;49.336;8.652;2022-08-21T14:27:39;10.15;;;2.97;;
11535;SDS011;5824;49.336;8.652;2022-08-21T14:30:18;4.15;;;2.92;;
11535;SDS011;5824;49.336;8.652;2022-08-21T14:32:52;5.55;;;2.90;;
11535;SDS011;5824;49.336;8.652;2022-08-21T14:35:19;3.75;;;2.40;;
11535;SDS011;5824;49.336;8.652;2022-08-21T14:37:46;5.25;;;2.63;;
11535;SDS011;5824;49.336;8.652;2022-08-21T14:40:15;4.32;;;2.20;;
11535;SDS011;5824;49.336;8.652;2022-08-21T14:42:41;5.93;;;3.13;;
11535;SDS011;5824;49.336;8.652;2022-08-21T14:45:14;4.72;;;2.72;;
11535;SDS011;5824;49.336;8.652;2022-08-21T14:47:53;5.93;;;2.88;;
11535;SDS011;5824;49.336;8.652;2022-08-21T14:50:19;6.05;;;3.35;;
11535;SDS011;5824;49.336;8.652;2022-08-21T14:52:45;8.77;;;3.42;;
11535;SDS011;5824;49.336;8.652;2022-08-21T14:55:11;5.55;;;3.33;;
11535;SDS011;5824;49.336;8.652;2022-08-21T14:57:39;5.30;;;3.03;;
11535;SDS011;5824;49.336;8.652;2022-08-21T15:00:11;7.10;;;3.00;;
11535;SDS011;5824;49.336;8.652;2022-08-21T15:02:38;9.18;;;3.28;;
11535;SDS011;5824;49.336;8.652;2022-08-21T15:05:04;4.63;;;3.30;;
11535;SDS011;5824;49.336;8.652;2022-08-21T15:07:31;4.60;;;2.88;;
11535;SDS011;5824;49.336;8.652;2022-08-21T15:09:56;6.55;;;2.83;;
11535;SDS011;5824;49.336;8.652;2022-08-21T15:12:22;6.10;;;3.35;;
11535;SDS011;5824;49.336;8.652;2022-08-21T15:14:49;5.82;;;3.20;;
11535;SDS011;5824;49.336;8.652;2022-08-21T15:17:15;5.22;;;2.80;;
11535;SDS011;5824;49.336;8.652;2022-08-21T15:19:41;6.55;;;3.35;;
11535;SDS011;5824;49.336;8.652;2022-08-21T15:22:06;5.20;;;3.38;;
11535;SDS011;5824;49.336;8.652;2022-08-21T15:24:32;4.97;;;3.10;;
11535;SDS011;5824;49.336;8.652;2022-08-21T15:26:59;6.82;;;3.20;;
11535;SDS011;5824;49.336;8.652;2022-08-21T15:29:25;6.13;;;3.33;;
11535;SDS011;5824;49.336;8.652;2022-08-21T15:31:53;5.53;;;3.20;;
11535;SDS011;5824;49.336;8.652;2022-08-21T15:34:22;3.90;;;2.72;;
11535;SDS011;5824;49.336;8.652;2022-08-21T15:36:49;4.90;;;3.13;;
11535;SDS011;5824;49.336;8.652;2022-08-21T15:39:14;5.88;;;3.60;;
11535;SDS011;5824;49.336;8.652;2022-08-21T15:41:40;5.90;;;3.33;;
11535;SDS011;5824;49.336;8.652;2022-08-21T15:44:06;5.88;;;3.05;;
11535;SDS011;5824;49.336;8.652;2022-08-21T15:46:34;5.75;;;3.15;;
11535;SDS011;5824;49.336;8.652;2022-08-21T15:48:59;6.57;;;3.50;;
11535;SDS011;5824;49.336;8.652;2022-08-21T15:51:25;6.10;;;3.38;;
11535;SDS011;5824;49.336;8.652;2022-08-21T15:53:50;6.15;;;3.10;;
11535;SDS011;5824;49.336;8.652;2022-08-21T15:56:19;8.20;;;3.30;;
11535;SDS011;5824;49.336;8.652;2022-08-21T15:58:48;7.70;;;3.45;;
11535;SDS011;5824;49.336;8.652;2022-08-21T16:01:19;9.23;;;3.47;;
11535;SDS011;5824;49.336;8.652;2022-08-21T16:03:48;7.60;;;3.75;;
11535;SDS011;5824;49.336;8.652;2022-08-21T16:06:15;11.00;;;3.55;;
11535;SDS011;5824;49.336;8.652;2022-08-21T16:08:40;6.95;;;3.20;;
11535;SDS011;5824;49.336;8.652;2022-08-21T16:11:06;8.48;;;3.63;;
11535;SDS011;5824;49.336;8.652;2022-08-21T16:13:34;9.63;;;3.55;;
11535;SDS011;5824;49.336;8.652;2022-08-21T16:16:03;15.93;;;5.95;;
11535;SDS011;5824;49.336;8.652;2022-08-21T16:18:30;13.43;;;5.18;;
11535;SDS011;5824;49.336;8.652;2022-08-21T16:20:56;8.55;;;3.50;;
11535;SDS011;5824;49.336;8.652;2022-08-21T16:23:21;6.70;;;3.47;;
11535;SDS011;5824;49.336;8.652;2022-08-21T16:25:47;11.25;;;4.47;;